Time;durP1;ratioP1;P1;durP2;ratioP2;P2;SDS_P1;SDS_P2;PMS_P1;PMS_P2;Temp;Humidity;BMP_temperature;BMP_pressure;BME280_temperature;BME280_humidity;BME280_pressure;Samples;Min_cycle;Max_cycle;Signal;HPM_P1;HPM_P2
2022/01/02 00:01:49;;;;;;;2.40;2.03;;;11.90;99.90;;;;;;5044360;28;20207;-44
2022/01/02 00:04:16;;;;;;;3.73;1.70;;;11.80;99.90;;;;;;5041027;28;20270;-43
2022/01/02 00:06:47;;;;;;;4.00;2.20;;;11.80;99.90;;;;;;5044431;28;20311;-46
2022/01/02 00:09:23;;;;;;;5.10;2.07;;;11.80;99.90;;;;;;5032246;28;20206;-42
2022/01/02 00:11:53;;;;;;;3.30;1.67;;;11.80;99.90;;;;;;5052787;28;20203;-47
2022/01/02 00:14:25;;;;;;;3.73;2.20;;;11.70;99.90;;;;;;5041627;28;20203;-47
2022/01/02 00:16:52;;;;;;;2.77;1.87;;;11.80;99.90;;;;;;5040023;28;20210;-41
2022/01/02 00:19:29;;;;;;;3.27;1.77;;;11.70;99.90;;;;;;5047364;28;20419;-47
2022/01/02 00:21:59;;;;;;;2.63;2.43;;;11.70;99.90;;;;;;5039444;28;20207;-45
2022/01/02 00:24:29;;;;;;;4.73;1.97;;;11.80;99.90;;;;;;5052429;28;20221;-43
2022/01/02 00:26:58;;;;;;;3.37;2.00;;;11.80;99.90;;;;;;5042640;28;20219;-47
2022/01/02 00:29:26;;;;;;;2.53;2.00;;;11.80;99.90;;;;;;5057314;28;20203;-47
2022/01/02 00:31:53;;;;;;;2.43;1.80;;;11.80;99.90;;;;;;5045512;28;20282;-44
2022/01/02 00:34:20;;;;;;;4.40;1.90;;;11.80;99.90;;;;;;5044242;28;20203;-42
2022/01/02 00:36:48;;;;;;;4.23;1.90;;;11.80;99.90;;;;;;5046593;28;20691;-46
2022/01/02 00:39:14;;;;;;;2.90;1.90;;;11.80;99.90;;;;;;5048674;28;20209;-43
2022/01/02 00:41:48;;;;;;;4.13;2.23;;;11.90;99.90;;;;;;5044565;28;20294;-44
2022/01/02 00:44:24;;;;;;;2.57;1.60;;;11.90;99.90;;;;;;5058902;28;20203;-43
2022/01/02 00:46:53;;;;;;;2.60;1.70;;;11.90;99.90;;;;;;5051479;28;20221;-46
2022/01/02 00:49:26;;;;;;;4.33;2.10;;;11.90;99.90;;;;;;5043930;28;20226;-48
2022/01/02 00:52:04;;;;;;;5.80;2.50;;;11.90;99.90;;;;;;5049504;28;20230;-43
2022/01/02 00:54:34;;;;;;;6.20;2.07;;;11.80;99.90;;;;;;5057750;28;20206;-47
2022/01/02 00:57:13;;;;;;;4.00;1.90;;;11.70;99.90;;;;;;5036578;28;20207;-46
2022/01/02 00:59:47;;;;;;;3.83;1.93;;;11.70;99.90;;;;;;5051887;28;20186;-44
2022/01/02 01:02:18;;;;;;;3.83;2.03;;;11.70;99.90;;;;;;5039696;28;20225;-43
2022/01/02 01:04:47;;;;;;;3.43;2.37;;;11.70;99.90;;;;;;5047797;28;20207;-43
2022/01/02 01:07:14;;;;;;;4.23;1.73;;;11.60;99.90;;;;;;5046942;28;20457;-47
2022/01/02 01:09:42;;;;;;;2.67;2.30;;;11.60;99.90;;;;;;5059428;28;20663;-44
2022/01/02 01:12:11;;;;;;;4.33;2.40;;;11.50;99.90;;;;;;5030924;28;20234;-46
2022/01/02 01:14:38;;;;;;;2.90;2.20;;;11.50;99.90;;;;;;5055911;28;20200;-45
2022/01/02 01:17:06;;;;;;;4.53;2.40;;;11.50;99.90;;;;;;5047552;28;20942;-45
2022/01/02 01:19:33;;;;;;;4.17;2.80;;;11.50;99.90;;;;;;5054880;28;20203;-46
2022/01/02 01:21:59;;;;;;;3.80;2.30;;;11.50;99.90;;;;;;5047867;28;20206;-43
2022/01/02 01:24:26;;;;;;;5.10;2.60;;;11.50;99.90;;;;;;5051112;28;20226;-44
2022/01/02 01:26:56;;;;;;;4.03;2.60;;;11.50;99.90;;;;;;5037893;28;20593;-42
2022/01/02 01:29:24;;;;;;;2.50;2.30;;;11.50;99.90;;;;;;5046183;28;20667;-43
2022/01/02 01:31:51;;;;;;;2.93;2.33;;;11.50;99.90;;;;;;5041354;28;20687;-44
2022/01/02 01:34:18;;;;;;;3.27;2.37;;;11.50;99.90;;;;;;5043901;28;20199;-48
2022/01/02 01:36:45;;;;;;;4.20;2.43;;;11.40;99.90;;;;;;5047276;28;20215;-51
2022/01/02 01:39:12;;;;;;;3.30;2.40;;;11.40;99.90;;;;;;5045354;28;20846;-53
2022/01/02 01:41:39;;;;;;;3.70;2.43;;;11.40;99.90;;;;;;5053924;28;20204;-53
2022/01/02 01:44:26;;;;;;;5.50;3.17;;;11.40;99.90;;;;;;5035668;28;20933;-48
2022/01/02 01:46:56;;;;;;;4.47;2.50;;;11.30;99.90;;;;;;5050091;28;20253;-48
2022/01/02 01:49:27;;;;;;;5.47;3.03;;;11.30;99.90;;;;;;5060002;28;20207;-54
2022/01/02 01:51:56;;;;;;;4.10;2.87;;;11.20;99.90;;;;;;5044351;28;20281;-53
2022/01/02 01:54:25;;;;;;;3.97;2.47;;;11.20;99.90;;;;;;5054261;28;20236;-54
2022/01/02 01:56:53;;;;;;;5.73;2.60;;;11.20;99.90;;;;;;5048170;28;20206;-52
2022/01/02 01:59:22;;;;;;;5.13;2.53;;;11.20;99.90;;;;;;5036751;28;20199;-48
2022/01/02 02:01:52;;;;;;;4.93;2.77;;;11.20;99.90;;;;;;5046718;28;20241;-52
2022/01/02 02:04:20;;;;;;;5.90;2.63;;;11.10;99.90;;;;;;5046852;28;20298;-50
2022/01/02 02:06:47;;;;;;;3.40;2.87;;;11.10;99.90;;;;;;5045280;28;20207;-53
2022/01/02 02:09:16;;;;;;;5.33;2.77;;;11.10;99.90;;;;;;5055925;28;20977;-53
2022/01/02 02:11:43;;;;;;;5.00;3.20;;;11.10;99.90;;;;;;5044447;28;20203;-51
2022/01/02 02:14:10;;;;;;;5.43;3.53;;;11.00;99.90;;;;;;5028182;28;20254;-54
2022/01/02 02:16:38;;;;;;;5.23;3.47;;;11.00;99.90;;;;;;5061036;28;20198;-48
2022/01/02 02:19:06;;;;;;;3.90;3.50;;;11.00;99.90;;;;;;5043695;28;20895;-50
2022/01/02 02:21:36;;;;;;;4.73;3.10;;;10.90;99.90;;;;;;5046885;28;20195;-48
2022/01/02 02:24:07;;;;;;;5.27;3.47;;;10.90;99.90;;;;;;5047582;28;20214;-50
2022/01/02 02:26:34;;;;;;;6.33;3.93;;;10.90;99.90;;;;;;5059856;28;20195;-51
2022/01/02 02:29:03;;;;;;;5.07;3.53;;;10.80;99.90;;;;;;5044545;28;20265;-54
2022/01/02 02:31:30;;;;;;;4.70;3.77;;;10.80;99.90;;;;;;5035597;28;20243;-49
2022/01/02 02:33:57;;;;;;;5.40;3.70;;;10.80;99.90;;;;;;5042433;28;20215;-52
2022/01/02 02:36:24;;;;;;;4.90;3.93;;;10.80;99.90;;;;;;5052322;28;20210;-50
2022/01/02 02:38:52;;;;;;;4.93;4.03;;;10.80;99.90;;;;;;5046600;28;20735;-48
2022/01/02 02:41:19;;;;;;;5.63;3.70;;;10.80;99.90;;;;;;5041702;28;20530;-51
2022/01/02 02:43:51;;;;;;;5.23;3.47;;;10.80;99.90;;;;;;5043051;28;20254;-53
2022/01/02 02:49:11;;;;;;;4.90;4.07;;;10.80;99.90;;;;;;5049990;28;20302;-47
2022/01/02 02:51:47;;;;;;;7.47;4.23;;;10.70;99.90;;;;;;5046954;28;20265;-52
2022/01/02 02:54:22;;;;;;;7.10;4.27;;;10.70;99.90;;;;;;5047978;28;20263;-50
2022/01/02 02:56:58;;;;;;;5.87;4.30;;;10.90;99.90;;;;;;5035343;28;20490;-54
2022/01/02 02:59:30;;;;;;;7.20;4.60;;;10.70;99.90;;;;;;5043203;28;20290;-50
2022/01/02 03:01:58;;;;;;;5.83;4.37;;;10.80;99.90;;;;;;5038575;28;20210;-54
2022/01/02 03:04:26;;;;;;;8.10;4.90;;;10.70;99.90;;;;;;5044881;28;20207;-53
2022/01/02 03:06:54;;;;;;;5.00;4.07;;;10.70;99.90;;;;;;5055951;28;20195;-52
2022/01/02 03:09:37;;;;;;;8.27;4.93;;;10.70;99.90;;;;;;5042292;28;20222;-54
2022/01/02 03:12:05;;;;;;;7.10;4.43;;;10.70;99.90;;;;;;5043223;28;20238;-49
2022/01/02 03:14:32;;;;;;;5.43;4.40;;;10.70;99.90;;;;;;5039878;28;20257;-54
2022/01/02 03:17:02;;;;;;;6.27;4.77;;;10.70;99.90;;;;;;5033014;28;20244;-49
2022/01/02 03:19:29;;;;;;;5.30;4.37;;;10.70;99.90;;;;;;5046154;28;20232;-54
2022/01/02 03:21:56;;;;;;;7.03;4.97;;;10.60;99.90;;;;;;5045780;28;20199;-52
2022/01/02 03:24:24;;;;;;;7.67;4.97;;;10.60;99.90;;;;;;5048729;28;20612;-53
2022/01/02 03:26:51;;;;;;;7.30;4.93;;;10.60;99.90;;;;;;5047234;28;20195;-54
2022/01/02 03:29:18;;;;;;;7.37;4.80;;;10.60;99.90;;;;;;5048850;28;20250;-51
2022/01/02 03:31:45;;;;;;;5.57;4.90;;;10.60;99.90;;;;;;5041257;28;20383;-51
2022/01/02 03:34:12;;;;;;;8.00;5.43;;;10.60;99.90;;;;;;5038871;28;20705;-48
2022/01/02 03:36:39;;;;;;;9.33;5.00;;;10.60;99.90;;;;;;5040580;28;20302;-52
2022/01/02 03:39:06;;;;;;;7.27;5.20;;;10.60;99.90;;;;;;5060138;28;20224;-48
2022/01/02 03:41:34;;;;;;;5.93;4.70;;;10.60;99.90;;;;;;5040431;28;20714;-50
2022/01/02 03:44:01;;;;;;;5.27;4.73;;;10.70;99.90;;;;;;5040558;28;20219;-48
2022/01/02 03:46:28;;;;;;;6.87;4.67;;;10.60;99.90;;;;;;5040508;28;20302;-50
2022/01/02 03:48:55;;;;;;;8.03;5.70;;;10.60;99.90;;;;;;5032795;28;20223;-51
2022/01/02 03:51:22;;;;;;;6.37;4.90;;;10.60;99.90;;;;;;5044468;28;20242;-48
2022/01/02 03:53:49;;;;;;;7.47;5.17;;;10.70;99.90;;;;;;5047941;28;20230;-54
2022/01/02 03:56:16;;;;;;;7.20;5.33;;;10.70;99.90;;;;;;5055369;28;20205;-49
2022/01/02 03:58:44;;;;;;;6.53;5.50;;;10.60;99.90;;;;;;5042357;28;20266;-53
2022/01/02 04:01:11;;;;;;;6.60;5.47;;;10.60;99.90;;;;;;5043333;28;20196;-51
2022/01/02 04:03:38;;;;;;;7.27;6.13;;;10.60;99.90;;;;;;5025082;28;21503;-54
2022/01/02 04:06:05;;;;;;;6.97;5.30;;;10.60;99.90;;;;;;5049504;28;20213;-48
2022/01/02 04:08:32;;;;;;;7.73;5.90;;;10.50;99.90;;;;;;5045365;28;20724;-55
2022/01/02 04:10:59;;;;;;;8.90;6.33;;;10.50;99.90;;;;;;5047008;28;20199;-54
2022/01/02 04:13:26;;;;;;;9.53;6.23;;;10.50;99.90;;;;;;5046360;28;20234;-54
2022/01/02 04:15:54;;;;;;;10.03;6.10;;;10.60;99.90;;;;;;5059482;28;20202;-52
2022/01/02 04:18:21;;;;;;;7.50;6.20;;;10.50;99.90;;;;;;5053937;28;20698;-50
2022/01/02 04:20:49;;;;;;;9.60;6.33;;;10.60;99.90;;;;;;5035990;28;20217;-52
2022/01/02 04:23:18;;;;;;;8.10;6.80;;;10.60;99.90;;;;;;5055140;28;20215;-51
2022/01/02 04:25:45;;;;;;;7.67;6.70;;;10.60;99.90;;;;;;5045890;28;20196;-52
2022/01/02 04:28:11;;;;;;;9.20;6.17;;;10.50;99.90;;;;;;5044249;28;20606;-51
2022/01/02 04:30:39;;;;;;;7.83;6.40;;;10.50;99.90;;;;;;5057476;28;20206;-50
2022/01/02 04:33:07;;;;;;;8.83;6.33;;;10.50;99.90;;;;;;5053369;28;20226;-51
2022/01/02 04:35:34;;;;;;;10.57;7.37;;;10.60;99.90;;;;;;5038268;28;20544;-50
2022/01/02 04:38:01;;;;;;;9.83;7.30;;;10.50;99.90;;;;;;5052291;28;20234;-50
2022/01/02 04:40:28;;;;;;;11.93;7.07;;;10.50;99.90;;;;;;5047779;28;20203;-50
2022/01/02 04:42:56;;;;;;;9.73;6.90;;;10.50;99.90;;;;;;5047011;28;20424;-50
2022/01/02 04:45:23;;;;;;;9.77;6.77;;;10.50;99.90;;;;;;5048544;28;20225;-54
2022/01/02 04:47:50;;;;;;;7.30;6.67;;;10.50;99.90;;;;;;5049146;28;20183;-49
2022/01/02 04:50:18;;;;;;;8.10;7.27;;;10.50;99.90;;;;;;5041883;28;20629;-53
2022/01/02 04:52:46;;;;;;;8.90;7.23;;;10.50;99.90;;;;;;5030574;28;20880;-54
2022/01/02 04:55:13;;;;;;;12.20;7.57;;;10.50;99.90;;;;;;5047507;28;20214;-49
2022/01/02 04:57:41;;;;;;;9.07;7.50;;;10.50;99.90;;;;;;5040614;28;20214;-52
2022/01/02 05:00:09;;;;;;;9.30;7.60;;;10.50;99.90;;;;;;5054051;28;20195;-49
2022/01/02 05:02:37;;;;;;;9.43;8.23;;;10.50;99.90;;;;;;5037770;28;20223;-50
2022/01/02 05:05:04;;;;;;;11.93;8.70;;;10.50;99.90;;;;;;5042681;28;20211;-52
2022/01/02 05:07:32;;;;;;;10.17;7.37;;;10.50;99.90;;;;;;5034705;28;20908;-50
2022/01/02 05:10:00;;;;;;;10.53;7.60;;;10.50;99.90;;;;;;5052429;28;20211;-50
2022/01/02 05:12:28;;;;;;;9.33;7.23;;;10.50;99.90;;;;;;5039706;28;20644;-52
2022/01/02 05:14:54;;;;;;;7.97;7.20;;;10.50;99.90;;;;;;5039751;28;20230;-51
2022/01/02 05:17:21;;;;;;;10.77;7.70;;;10.50;99.90;;;;;;5056667;28;20726;-51
2022/01/02 05:19:48;;;;;;;10.70;8.00;;;10.50;99.90;;;;;;5043282;28;20217;-47
2022/01/02 05:22:14;;;;;;;10.57;8.73;;;10.50;99.90;;;;;;5049643;28;20228;-51
2022/01/02 05:24:43;;;;;;;10.87;7.87;;;10.50;99.90;;;;;;5034051;28;20195;-50
2022/01/02 05:27:10;;;;;;;9.43;8.23;;;10.50;99.90;;;;;;5058628;28;20199;-48
2022/01/02 05:29:37;;;;;;;12.53;7.97;;;10.50;99.90;;;;;;5047271;28;20229;-52
2022/01/02 05:32:04;;;;;;;11.33;8.30;;;10.50;99.90;;;;;;5044763;28;20231;-51
2022/01/02 05:34:31;;;;;;;11.10;8.00;;;10.50;99.90;;;;;;5051104;28;20693;-51
2022/01/02 05:36:59;;;;;;;11.50;8.23;;;10.50;99.90;;;;;;5056070;28;20830;-49
2022/01/02 05:39:26;;;;;;;8.60;7.73;;;10.50;99.90;;;;;;5039753;28;20214;-49
2022/01/02 05:41:55;;;;;;;8.70;7.60;;;10.50;99.90;;;;;;5049165;28;20215;-51
2022/01/02 05:44:24;;;;;;;11.37;8.43;;;10.50;99.90;;;;;;5050754;28;20228;-51
2022/01/02 05:46:52;;;;;;;13.80;7.93;;;10.50;99.90;;;;;;5056186;28;20285;-52
2022/01/02 05:49:19;;;;;;;10.60;8.13;;;10.50;99.90;;;;;;5061414;28;20273;-51
2022/01/02 05:51:45;;;;;;;10.80;7.77;;;10.50;99.90;;;;;;5038270;28;20207;-49
2022/01/02 05:54:12;;;;;;;11.17;8.50;;;10.50;99.90;;;;;;5040372;28;20824;-49
2022/01/02 05:56:39;;;;;;;9.97;8.53;;;10.60;99.90;;;;;;5044345;28;20191;-53
2022/01/02 05:59:08;;;;;;;12.97;8.70;;;10.60;99.90;;;;;;5055102;28;20272;-47
2022/01/02 06:01:36;;;;;;;13.23;9.37;;;10.60;99.90;;;;;;5040875;28;20289;-51
2022/01/02 06:04:03;;;;;;;15.67;9.13;;;10.60;99.90;;;;;;5058514;28;20226;-50
2022/01/02 06:06:30;;;;;;;9.87;8.77;;;10.60;99.90;;;;;;5046192;28;20723;-52
2022/01/02 06:08:57;;;;;;;11.53;9.30;;;10.60;99.90;;;;;;5041701;28;20263;-51
2022/01/02 06:11:23;;;;;;;12.13;8.93;;;10.60;99.90;;;;;;5050636;28;20203;-50
2022/01/02 06:13:51;;;;;;;12.87;9.83;;;10.60;99.90;;;;;;5061034;28;20316;-47
2022/01/02 06:16:21;;;;;;;11.70;9.97;;;10.60;99.90;;;;;;5047889;28;20279;-51
2022/01/02 06:18:48;;;;;;;10.07;8.67;;;10.60;99.90;;;;;;5045819;28;20517;-51
2022/01/02 06:21:15;;;;;;;9.53;8.57;;;10.60;99.90;;;;;;5046974;28;20246;-49
2022/01/02 06:23:42;;;;;;;10.33;9.27;;;10.60;99.90;;;;;;5027847;28;20630;-49
2022/01/02 06:26:09;;;;;;;11.17;9.17;;;10.60;99.90;;;;;;5057223;28;20780;-52
2022/01/02 06:28:37;;;;;;;15.30;9.57;;;10.60;99.90;;;;;;5041109;28;20223;-54
2022/01/02 06:31:04;;;;;;;9.27;8.20;;;10.60;99.90;;;;;;5053395;28;20622;-51
2022/01/02 06:33:33;;;;;;;12.30;9.10;;;10.60;99.90;;;;;;5048116;28;20219;-48
2022/01/02 06:36:00;;;;;;;12.57;8.87;;;10.60;99.90;;;;;;5071681;28;20552;-50
2022/01/02 06:38:27;;;;;;;16.77;10.00;;;10.60;99.90;;;;;;5050497;28;20644;-50
2022/01/02 06:40:56;;;;;;;14.07;9.70;;;10.60;99.90;;;;;;5038399;28;20299;-52
2022/01/02 06:43:23;;;;;;;12.77;9.20;;;10.60;99.90;;;;;;5049086;28;20214;-55
2022/01/02 06:45:51;;;;;;;11.00;8.97;;;10.60;99.90;;;;;;5044789;28;20190;-50
2022/01/02 06:48:17;;;;;;;10.27;8.57;;;10.60;99.90;;;;;;5053228;28;20252;-50
2022/01/02 06:50:45;;;;;;;11.77;9.20;;;10.60;99.90;;;;;;5042414;28;20836;-50
2022/01/02 06:53:13;;;;;;;12.77;8.67;;;10.60;99.90;;;;;;5055803;28;20226;-50
2022/01/02 06:55:40;;;;;;;13.03;8.83;;;10.60;99.90;;;;;;5031334;28;20226;-50
2022/01/02 06:58:07;;;;;;;10.90;9.00;;;10.60;99.90;;;;;;5055949;28;20198;-49
2022/01/02 07:00:36;;;;;;;13.17;8.67;;;10.70;99.90;;;;;;5035675;28;20207;-53
2022/01/02 07:03:05;;;;;;;12.90;8.67;;;10.70;99.90;;;;;;5046605;28;20230;-52
2022/01/02 07:05:31;;;;;;;12.00;8.63;;;10.70;99.90;;;;;;5047016;28;20198;-52
2022/01/02 07:08:00;;;;;;;9.43;8.10;;;10.70;99.90;;;;;;5047027;28;20256;-48
2022/01/02 07:10:29;;;;;;;13.63;9.03;;;10.70;99.90;;;;;;5054594;28;20221;-48
2022/01/02 07:12:56;;;;;;;10.17;8.90;;;10.70;99.90;;;;;;5040456;28;20324;-55
2022/01/02 07:15:23;;;;;;;8.90;8.03;;;10.70;99.90;;;;;;5045905;28;20748;-52
2022/01/02 07:17:49;;;;;;;9.73;8.43;;;10.70;99.90;;;;;;5048674;28;20976;-51
2022/01/02 07:20:16;;;;;;;10.50;8.57;;;10.70;99.90;;;;;;5057934;28;20200;-52
2022/01/02 07:22:43;;;;;;;11.40;7.90;;;10.70;99.90;;;;;;5040024;28;20223;-53
2022/01/02 07:25:11;;;;;;;9.93;7.43;;;10.70;99.90;;;;;;5044313;28;20230;-48
2022/01/02 07:27:39;;;;;;;9.37;7.37;;;10.70;99.90;;;;;;5028088;28;20206;-54
2022/01/02 07:30:08;;;;;;;10.27;7.87;;;10.70;99.90;;;;;;5053088;28;20702;-51
2022/01/02 07:32:37;;;;;;;7.97;7.10;;;10.70;99.90;;;;;;5040469;28;20223;-54
2022/01/02 07:35:06;;;;;;;9.03;8.00;;;10.80;99.90;;;;;;5057606;28;20213;-53
2022/01/02 07:37:33;;;;;;;14.40;8.33;;;10.80;99.90;;;;;;5046043;28;20207;-54
2022/01/02 07:40:00;;;;;;;10.67;8.17;;;10.80;99.90;;;;;;5043340;28;20198;-49
2022/01/02 07:42:28;;;;;;;12.03;8.60;;;10.80;99.90;;;;;;5035237;28;20211;-52
2022/01/02 07:45:01;;;;;;;13.17;8.43;;;10.80;99.90;;;;;;5046565;28;20214;-49
2022/01/02 07:47:28;;;;;;;10.83;8.43;;;10.80;99.90;;;;;;5054350;28;20819;-53
2022/01/02 07:49:54;;;;;;;10.07;8.70;;;10.80;99.90;;;;;;5044005;28;20226;-49
2022/01/02 07:52:21;;;;;;;12.53;9.47;;;10.80;99.90;;;;;;5042651;28;20230;-49
2022/01/02 07:54:48;;;;;;;14.17;9.17;;;10.80;99.90;;;;;;5039977;28;20238;-50
2022/01/02 07:57:16;;;;;;;12.30;9.17;;;10.90;99.90;;;;;;5043111;28;20211;-52
2022/01/02 07:59:44;;;;;;;12.13;9.10;;;10.90;99.90;;;;;;5034013;28;20198;-48
2022/01/02 08:02:10;;;;;;;14.13;9.63;;;10.90;99.90;;;;;;5046163;28;20269;-52
2022/01/02 08:04:38;;;;;;;12.90;8.90;;;10.90;99.90;;;;;;5046700;28;20194;-47
2022/01/02 08:07:05;;;;;;;14.53;9.33;;;10.90;99.90;;;;;;5052481;28;20206;-51
2022/01/02 08:09:32;;;;;;;11.67;8.90;;;11.00;99.90;;;;;;5046469;28;20566;-54
2022/01/02 08:11:59;;;;;;;14.43;8.73;;;11.00;99.90;;;;;;5046002;28;20199;-50
2022/01/02 08:14:26;;;;;;;10.83;8.67;;;11.00;99.90;;;;;;5031974;28;20211;-52
2022/01/02 08:16:54;;;;;;;12.93;9.40;;;11.00;99.90;;;;;;5042910;28;20199;-50
2022/01/02 08:19:24;;;;;;;15.17;8.63;;;11.10;99.90;;;;;;5042195;28;20624;-52
2022/01/02 08:21:50;;;;;;;13.73;9.20;;;11.10;99.90;;;;;;5039084;28;20939;-52
2022/01/02 08:24:17;;;;;;;15.57;8.67;;;11.10;99.90;;;;;;5043928;28;20195;-51
2022/01/02 08:26:46;;;;;;;13.53;8.57;;;11.10;99.90;;;;;;5050139;28;20198;-44
2022/01/02 08:29:13;;;;;;;12.03;7.93;;;11.10;99.90;;;;;;5046508;28;20689;-48
2022/01/02 08:31:41;;;;;;;12.13;9.23;;;11.10;99.90;;;;;;5033606;28;20336;-48
2022/01/02 08:34:09;;;;;;;8.90;7.30;;;11.10;99.90;;;;;;5052476;28;20213;-49
2022/01/02 08:36:36;;;;;;;11.13;7.43;;;11.10;99.90;;;;;;5052078;28;20605;-49
2022/01/02 08:39:04;;;;;;;11.03;8.13;;;11.20;99.90;;;;;;5046845;28;20207;-49
2022/01/02 08:41:31;;;;;;;13.17;7.73;;;11.20;99.90;;;;;;5040355;28;20203;-46
2022/01/02 08:43:58;;;;;;;12.73;7.10;;;11.20;99.90;;;;;;5038271;28;20297;-47
2022/01/02 08:46:25;;;;;;;9.00;6.43;;;11.20;99.90;;;;;;5033534;28;20210;-50
2022/01/02 08:48:52;;;;;;;10.13;5.90;;;11.20;99.90;;;;;;5044136;28;20871;-46
2022/01/02 08:51:20;;;;;;;9.80;6.07;;;11.20;99.90;;;;;;5048600;28;20214;-51
2022/01/02 08:53:46;;;;;;;12.70;6.50;;;11.20;99.90;;;;;;5043384;28;21041;-46
2022/01/02 08:56:15;;;;;;;12.03;6.20;;;11.20;99.90;;;;;;5056433;28;20206;-45
2022/01/02 08:58:42;;;;;;;8.27;5.87;;;11.30;99.90;;;;;;5043597;28;20187;-50
2022/01/02 09:01:09;;;;;;;13.70;5.50;;;11.30;99.90;;;;;;5036720;28;20206;-49
2022/01/02 09:03:36;;;;;;;13.80;5.90;;;11.30;99.90;;;;;;5046098;28;20218;-50
2022/01/02 09:06:03;;;;;;;7.17;5.30;;;11.30;99.90;;;;;;5052224;28;20202;-52
2022/01/02 09:08:31;;;;;;;7.57;5.23;;;11.30;99.90;;;;;;5050619;28;20202;-49
2022/01/02 09:10:57;;;;;;;10.97;5.53;;;11.40;99.90;;;;;;5052091;28;20296;-46
2022/01/02 09:13:26;;;;;;;8.33;5.20;;;11.40;99.90;;;;;;5044187;28;20210;-48
2022/01/02 09:15:53;;;;;;;9.03;5.00;;;11.40;99.90;;;;;;5039304;28;20205;-52
2022/01/02 09:18:20;;;;;;;8.40;5.30;;;11.40;99.90;;;;;;5043944;28;20207;-51
2022/01/02 09:20:47;;;;;;;8.57;5.43;;;11.40;99.90;;;;;;5052830;28;20213;-50
2022/01/02 09:23:14;;;;;;;7.93;5.63;;;11.40;99.90;;;;;;5049571;28;21999;-46
2022/01/02 09:25:42;;;;;;;6.93;4.43;;;11.40;99.90;;;;;;5056449;28;20199;-49
2022/01/02 09:28:10;;;;;;;7.33;4.27;;;11.50;99.90;;;;;;5040390;28;20195;-46
2022/01/02 09:30:36;;;;;;;12.80;4.43;;;11.50;99.90;;;;;;5052427;28;20218;-48
2022/01/02 09:33:08;;;;;;;10.10;4.37;;;11.50;99.90;;;;;;5030313;28;20305;-51
2022/01/02 09:35:36;;;;;;;8.07;4.80;;;11.50;99.90;;;;;;5054957;28;20198;-50
2022/01/02 09:38:03;;;;;;;7.60;4.40;;;11.60;99.90;;;;;;5049016;28;20604;-49
2022/01/02 09:40:31;;;;;;;8.17;4.53;;;11.60;99.90;;;;;;5062582;28;20201;-48
2022/01/02 09:43:00;;;;;;;8.53;3.93;;;11.60;99.90;;;;;;5043981;28;20225;-51
2022/01/02 09:45:27;;;;;;;6.30;3.97;;;11.60;99.90;;;;;;5050182;28;20651;-49
2022/01/02 09:47:55;;;;;;;8.90;4.33;;;11.60;99.90;;;;;;5041040;28;20207;-50
2022/01/02 09:50:22;;;;;;;10.17;4.23;;;11.60;99.90;;;;;;5046264;28;20210;-49
2022/01/02 09:52:50;;;;;;;6.13;3.53;;;11.60;99.90;;;;;;5041617;28;20932;-54
2022/01/02 09:55:16;;;;;;;6.43;3.53;;;11.60;99.90;;;;;;5056769;28;20211;-50
2022/01/02 09:57:44;;;;;;;5.67;3.20;;;11.70;99.90;;;;;;5045778;28;20190;-52
2022/01/02 10:00:13;;;;;;;5.70;3.40;;;11.70;99.90;;;;;;5052428;28;20191;-50
2022/01/02 10:03:00;;;;;;;6.87;3.53;;;11.70;99.90;;;;;;5041450;28;20234;-50
2022/01/02 10:05:28;;;;;;;5.87;3.10;;;11.70;99.90;;;;;;5043111;28;20203;-53
2022/01/02 10:07:57;;;;;;;7.83;3.63;;;11.70;99.90;;;;;;5045124;28;20261;-50
2022/01/02 10:10:33;;;;;;;10.93;3.40;;;11.80;99.90;;;;;;5054957;28;20695;-49
2022/01/02 10:13:01;;;;;;;7.77;3.37;;;11.80;99.90;;;;;;5054681;28;20230;-48
2022/01/02 10:15:30;;;;;;;5.03;3.20;;;11.80;99.90;;;;;;5056886;28;20191;-48
2022/01/02 10:18:02;;;;;;;7.77;3.63;;;11.80;99.90;;;;;;5042673;28;20671;-51
2022/01/02 10:20:32;;;;;;;6.73;3.40;;;11.80;99.90;;;;;;5046929;28;20197;-53
2022/01/02 10:23:06;;;;;;;6.07;3.23;;;11.80;99.90;;;;;;5044320;28;20218;-53
2022/01/02 10:25:51;;;;;;;10.43;3.73;;;11.80;99.90;;;;;;5047593;28;20870;-52
2022/01/02 10:28:30;;;;;;;8.00;3.23;;;11.80;99.90;;;;;;5050310;28;20198;-48
2022/01/02 10:31:02;;;;;;;6.60;3.53;;;11.80;99.90;;;;;;5055865;28;20222;-47
2022/01/02 10:33:32;;;;;;;7.07;2.90;;;11.90;99.90;;;;;;5035453;28;20237;-46
2022/01/02 10:36:00;;;;;;;5.90;3.00;;;11.80;99.90;;;;;;5049826;28;20208;-52
2022/01/02 10:38:28;;;;;;;5.63;2.60;;;11.80;99.90;;;;;;5041461;28;20225;-50
2022/01/02 10:40:55;;;;;;;8.07;3.17;;;11.80;99.90;;;;;;5050758;28;20605;-50
2022/01/02 10:43:31;;;;;;;6.17;2.90;;;11.80;99.90;;;;;;5051663;28;20563;-47
2022/01/02 10:46:03;;;;;;;5.43;2.50;;;11.80;99.90;;;;;;5055307;28;20203;-46
2022/01/02 10:48:36;;;;;;;5.53;3.03;;;11.80;99.90;;;;;;5037875;28;20281;-49
2022/01/02 10:51:06;;;;;;;5.73;3.27;;;11.80;99.90;;;;;;5046995;28;20218;-48
2022/01/02 10:53:34;;;;;;;7.10;3.30;;;11.80;99.90;;;;;;5045695;28;22273;-46
2022/01/02 10:56:02;;;;;;;5.63;3.33;;;11.80;99.90;;;;;;5049995;28;20202;-48
2022/01/02 10:58:30;;;;;;;8.93;2.97;;;11.80;99.90;;;;;;5042236;28;20282;-48
2022/01/02 11:01:04;;;;;;;6.80;3.57;;;11.80;99.90;;;;;;5052876;28;20241;-46
2022/01/02 11:03:32;;;;;;;7.87;3.63;;;11.80;99.90;;;;;;5038150;28;20222;-47
2022/01/02 11:06:05;;;;;;;6.83;3.40;;;11.70;99.90;;;;;;5050047;28;20214;-48
2022/01/02 11:08:34;;;;;;;8.90;3.47;;;11.70;99.90;;;;;;5043381;28;20442;-53
2022/01/02 11:11:02;;;;;;;4.80;2.53;;;11.80;99.90;;;;;;5048974;28;20272;-49
2022/01/02 11:13:29;;;;;;;5.40;3.10;;;11.80;99.90;;;;;;5045932;28;20811;-51
2022/01/02 11:15:56;;;;;;;4.33;2.77;;;11.80;99.90;;;;;;5042609;28;20235;-52
2022/01/02 11:18:25;;;;;;;3.37;2.90;;;11.80;99.90;;;;;;5037131;28;20199;-53
2022/01/02 11:20:53;;;;;;;5.17;2.87;;;11.80;99.90;;;;;;5053866;28;20277;-49
2022/01/02 11:23:25;;;;;;;5.70;3.00;;;11.80;99.90;;;;;;5042021;28;20301;-48
2022/01/02 11:26:00;;;;;;;7.70;3.13;;;11.80;99.90;;;;;;5053792;28;20294;-46
2022/01/02 11:28:36;;;;;;;8.03;3.10;;;11.80;99.90;;;;;;5048215;28;20214;-55
2022/01/02 11:31:03;;;;;;;8.63;2.83;;;11.80;99.90;;;;;;5054270;28;20582;-52
2022/01/02 11:33:33;;;;;;;7.97;3.47;;;11.80;99.90;;;;;;5041728;28;20234;-48
2022/01/02 11:36:02;;;;;;;6.17;3.47;;;11.80;99.90;;;;;;5032756;28;20209;-48
2022/01/02 11:38:44;;;;;;;5.63;3.03;;;11.70;99.90;;;;;;5039700;28;20203;-50
2022/01/02 11:41:13;;;;;;;6.73;3.50;;;11.70;99.90;;;;;;5041206;28;20195;-50
2022/01/02 11:43:54;;;;;;;4.37;3.20;;;11.70;99.90;;;;;;5044139;28;20260;-53
2022/01/02 11:46:23;;;;;;;4.83;2.97;;;11.70;99.90;;;;;;5044601;28;20275;-51
2022/01/02 11:49:14;;;;;;;7.93;4.03;;;11.70;99.90;;;;;;5040800;28;20213;-52
2022/01/02 11:52:18;;;;;;;8.07;3.10;;;11.70;99.90;;;;;;5036073;28;20338;-54
2022/01/02 11:54:56;;;;;;;7.63;3.40;;;11.70;99.90;;;;;;5035042;28;20547;-53
2022/01/02 11:57:53;;;;;;;3.43;3.03;;;11.70;99.90;;;;;;5048543;28;20198;-54
2022/01/02 12:00:44;;;;;;;4.10;3.10;;;11.70;99.90;;;;;;5042388;28;20207;-52
2022/01/02 12:03:49;;;;;;;5.23;3.90;;;11.70;99.90;;;;;;5046477;28;20698;-53
2022/01/02 12:06:24;;;;;;;8.67;3.27;;;11.70;99.90;;;;;;5033960;28;20277;-53
2022/01/02 12:08:54;;;;;;;7.23;3.63;;;11.70;99.90;;;;;;5047576;28;20783;-54
2022/01/02 12:11:43;;;;;;;6.20;4.20;;;11.70;99.90;;;;;;5036363;28;20282;-54
2022/01/02 12:14:12;;;;;;;6.83;3.50;;;11.70;99.90;;;;;;5042790;28;20227;-52
2022/01/02 12:16:40;;;;;;;8.47;3.93;;;11.60;99.90;;;;;;5035964;28;20187;-50
2022/01/02 12:19:08;;;;;;;5.50;3.60;;;11.60;99.90;;;;;;5056096;28;20660;-55
2022/01/02 12:21:37;;;;;;;6.43;4.30;;;11.60;99.90;;;;;;5031509;28;20536;-53
2022/01/02 12:24:12;;;;;;;5.37;3.57;;;11.70;99.90;;;;;;5057420;28;20218;-55
2022/01/02 12:26:39;;;;;;;7.97;4.13;;;11.70;99.90;;;;;;5035956;28;20213;-54
2022/01/02 12:29:07;;;;;;;8.90;3.93;;;11.60;99.90;;;;;;5050735;28;20294;-52
2022/01/02 12:31:36;;;;;;;5.30;4.00;;;11.60;99.90;;;;;;5050150;28;20875;-54
2022/01/02 12:34:11;;;;;;;5.40;4.40;;;11.60;99.90;;;;;;5056769;28;20277;-52
2022/01/02 12:36:42;;;;;;;9.13;4.70;;;11.70;99.90;;;;;;5036957;28;20821;-55
2022/01/02 12:39:10;;;;;;;8.37;4.03;;;11.70;99.90;;;;;;5056434;28;20218;-54
2022/01/02 12:41:39;;;;;;;8.47;4.23;;;11.70;99.90;;;;;;5048602;28;20199;-54
2022/01/02 12:44:08;;;;;;;11.70;4.03;;;11.70;99.90;;;;;;5050485;28;20583;-51
2022/01/02 12:46:38;;;;;;;8.90;4.77;;;11.70;99.90;;;;;;5049205;28;20191;-56
2022/01/02 12:49:07;;;;;;;9.97;4.20;;;11.70;99.90;;;;;;5054685;28;20187;-51
2022/01/02 12:51:35;;;;;;;8.23;4.17;;;11.70;99.90;;;;;;5037539;28;20261;-52
2022/01/02 12:54:05;;;;;;;7.50;4.20;;;11.70;99.90;;;;;;5054905;28;20223;-51
2022/01/02 12:56:37;;;;;;;10.03;4.60;;;11.70;99.90;;;;;;5047361;28;20208;-53